Aérodrome :
LOGIN :

S'inscrire | Disclaimer

   EN    FR    IT 

 










Légende :    VFR   VFR Marginal   IFR   IFR Intensif   IFR Très Intensif
Visi : 
Plafond : 
>= 8 km
>= 3000ft
5 à 8 km
1000 à 3000 ft
1500m à 5 km
500 à 1000 ft
800 à 1500m
200 à 500 ft
< 800m
< 200 ft
Symboles :   Orages  Brouillard  Fortes neiges  Fortes précipitations  Vent > 20 kt
SIGMETs :   Divers  Orages  Givrage  Turbulence  Onde Orograph.  Cendres Volcan.






- Altitude de l'aérodrome : 1649 ft
- Code IATA : HHN


EDFH - Frankfurt-Hahn Rhineland-Palatinate

DERNIER METAR :
  • 231750Z 01009KT 320V050 9999 FEW035 17/13 Q1019

METARs EXPIRÉS :
  • 231720Z 02011KT 9999 FEW019 18/14 Q1019
  • 231650Z 02010KT 9999 FEW030 18/14 Q1019
  • 231620Z 02011KT 9999 VCSH FEW033TCU 18/15 Q1019
  • 231550Z 36008KT 330V030 9999 VCSH FEW020TCU 18/14 Q1019
  • 231520Z 36007KT 9999 VCSH FEW020TCU SCT070 18/13 Q1019

TAF TAF EDFH
Valide du 23 à 18h jusqu'au 24 à 18h UTC


231700Z 2318/2418 01008KT 9999 SCT035
PROB30
TEMPO 2318/2320 25015G25KT 4000 TSRA BKN025CB
BECMG 2323/2402 4000 BR BKN005
TEMPO 2323/2407 0400 FG BKN001
PROB30
TEMPO 2402/2407 1300 TSRA BKN002 BKN012CB
BECMG 2407/2409 2500 RA
PROB40
TEMPO 2409/2418 3500 TSRA BKN007 BKN015CB



MET'MAP, la Météo Aéronautique d'un coup d'oeil ! - Copyright ORBIFLY Décembre 2007 - Disclaimer

ORBIFLY MET'MAP TEAM :

Programmation & Développement : Alexandra Zaïnal
Sur une idée originale de : Baudouin d'Aumeries
Assistance à la programmation : Marc-Olivier Méhu
Soutien technique & logistique : Manuel Goepfert

Contact : metmap@orbifly.com




SOURCES & CREDITS :

   NOAA